Terminal Aerodrome Forecast
Issued by NWS

Home | Current Version | Previous Version | Text Only | Print | Product List | Glossary On
Versions: 1 2 3 4 5 6 7 8 9 10 11 12 13 14 15 16 17 18 19 20 21 22 23 24 25
000
FTAK31 PANC 201122
TAFASD
TAF
PASD 201122Z 2012/2112 18006KT P6SM -RA BKN060
     FM201600 11005KT 4SM -RA BKN025
     FM202100 15010KT P6SM -RA SCT010 BKN025
     FM210600 15007KT 4SM BR OVC015
      AMD LTD TO CLD VIS AND WIND=

USA.gov is the U.S. government's official web portal to all federal, state and local government web resources and services.